Time;durP1;ratioP1;P1;durP2;ratioP2;P2;SDS_P1;SDS_P2;PMS_P1;PMS_P2;Temp;Humidity;BMP_temperature;BMP_pressure;BME280_temperature;BME280_humidity;BME280_pressure;Samples;Min_cycle;Max_cycle;Signal;HPM_P1;HPM_P2
2021/12/18 00:00:58;;;;;;;31.58;14.82;;;;;;;;;;5051515;28;20021;-85
2021/12/18 00:03:23;;;;;;;32.83;15.68;;;;;;;;;;5054714;28;20047;-84
2021/12/18 00:05:48;;;;;;;30.80;14.20;;;;;;;;;;5054154;28;20009;-84
2021/12/18 00:08:13;;;;;;;34.20;15.93;;;;;;;;;;5053867;28;20013;-84
2021/12/18 00:10:39;;;;;;;34.58;15.70;;;;;;;;;;5052831;28;20025;-85
2021/12/18 00:13:04;;;;;;;37.50;16.40;;;;;;;;;;5052891;28;20516;-84
2021/12/18 00:15:30;;;;;;;30.30;14.55;;;;;;;;;;5052939;28;20070;-84
2021/12/18 00:17:56;;;;;;;35.83;17.00;;;;;;;;;;5052254;28;20503;-83
2021/12/18 00:20:21;;;;;;;38.47;16.73;;;;;;;;;;5053975;28;20029;-84
2021/12/18 00:22:47;;;;;;;35.25;17.50;;;;;;;;;;5050383;28;20029;-84
2021/12/18 00:25:12;;;;;;;41.15;17.77;;;;;;;;;;5052518;28;20025;-83
2021/12/18 00:27:38;;;;;;;41.25;18.92;;;;;;;;;;5053179;28;20075;-84
2021/12/18 00:30:04;;;;;;;33.05;14.27;;;;;;;;;;5050967;28;20494;-84
2021/12/18 00:32:29;;;;;;;30.65;14.07;;;;;;;;;;5052252;28;20496;-84
2021/12/18 00:34:54;;;;;;;38.25;16.17;;;;;;;;;;5053752;28;20055;-84
2021/12/18 00:37:19;;;;;;;34.33;16.05;;;;;;;;;;5052472;28;20060;-84
2021/12/18 00:39:55;;;;;;;34.58;14.38;;;;;;;;;;5086020;28;20020;-84
2021/12/18 00:42:38;;;;;;;34.97;15.68;;;;;;;;;;5053375;28;20033;-85
2021/12/18 00:45:05;;;;;;;35.15;15.45;;;;;;;;;;5032300;28;20405;-84
2021/12/18 00:47:30;;;;;;;29.23;13.52;;;;;;;;;;5036454;28;20483;-84
2021/12/18 00:49:55;;;;;;;34.80;15.63;;;;;;;;;;5053771;28;20021;-85
2021/12/18 00:52:20;;;;;;;33.10;15.63;;;;;;;;;;5085568;28;20074;-84
2021/12/18 00:54:45;;;;;;;32.03;14.95;;;;;;;;;;5085597;28;20112;-84
2021/12/18 00:57:11;;;;;;;37.28;16.85;;;;;;;;;;5085499;28;20024;-84
2021/12/18 00:59:36;;;;;;;36.85;16.38;;;;;;;;;;5085109;28;20025;-84
2021/12/18 01:02:02;;;;;;;30.95;14.60;;;;;;;;;;5052017;28;20362;-84
2021/12/18 01:04:27;;;;;;;30.73;14.32;;;;;;;;;;5051916;28;20065;-84
2021/12/18 01:06:52;;;;;;;34.42;15.23;;;;;;;;;;5051985;28;20033;-84
2021/12/18 01:09:23;;;;;;;34.58;13.38;;;;;;;;;;5051894;28;20464;-84
2021/12/18 01:11:49;;;;;;;29.80;13.98;;;;;;;;;;5051758;28;20079;-84
2021/12/18 01:24:50;;;;;;;36.10;16.58;;;;;;;;;;5052818;28;20468;-84
2021/12/18 01:27:15;;;;;;;33.50;16.48;;;;;;;;;;5051655;28;20048;-84
2021/12/18 01:29:40;;;;;;;30.60;13.85;;;;;;;;;;5052897;28;20559;-84
2021/12/18 01:32:06;;;;;;;29.48;12.88;;;;;;;;;;5084868;28;20464;-84
2021/12/18 01:34:31;;;;;;;30.25;14.38;;;;;;;;;;5051208;28;20036;-85
2021/12/18 01:36:57;;;;;;;31.02;13.55;;;;;;;;;;5051368;28;20392;-84
2021/12/18 01:39:22;;;;;;;32.15;14.30;;;;;;;;;;5068193;28;20029;-84
2021/12/18 01:44:52;;;;;;;30.33;13.82;;;;;;;;;;5059537;28;20104;-84
2021/12/18 01:52:43;;;;;;;28.00;12.70;;;;;;;;;;5052109;28;20086;-84
2021/12/18 01:55:09;;;;;;;30.60;13.05;;;;;;;;;;5057483;28;20017;-84
2021/12/18 01:57:35;;;;;;;32.78;13.32;;;;;;;;;;5074700;28;20036;-84
2021/12/18 02:00:00;;;;;;;34.35;14.90;;;;;;;;;;5058058;28;20358;-84
2021/12/18 02:02:25;;;;;;;34.70;15.00;;;;;;;;;;5074703;28;20067;-84
2021/12/18 02:04:51;;;;;;;31.17;13.45;;;;;;;;;;5057958;28;20075;-84
2021/12/18 02:07:16;;;;;;;38.20;16.67;;;;;;;;;;5057807;28;20027;-84
2021/12/18 02:10:04;;;;;;;36.72;17.02;;;;;;;;;;5057925;28;20120;-84
2021/12/18 02:12:50;;;;;;;32.70;14.77;;;;;;;;;;5080348;28;20401;-84
2021/12/18 02:20:45;;;;;;;33.13;14.02;;;;;;;;;;5059019;28;20048;-84
2021/12/18 02:23:11;;;;;;;34.42;15.35;;;;;;;;;;5091054;28;20021;-84
2021/12/18 02:25:37;;;;;;;38.97;16.17;;;;;;;;;;5091235;28;20166;-84
2021/12/18 02:28:03;;;;;;;36.67;15.20;;;;;;;;;;5057201;28;20025;-82
2021/12/18 02:30:31;;;;;;;38.13;15.80;;;;;;;;;;5074440;28;20029;-84
2021/12/18 02:32:56;;;;;;;35.35;15.52;;;;;;;;;;5057755;28;20103;-85
2021/12/18 02:35:35;;;;;;;33.85;14.32;;;;;;;;;;5057714;28;20049;-84
2021/12/18 02:38:08;;;;;;;33.75;14.80;;;;;;;;;;5057327;28;20040;-85
2021/12/18 02:43:10;;;;;;;38.55;15.45;;;;;;;;;;5058724;28;20029;-84
2021/12/18 02:45:36;;;;;;;36.83;14.88;;;;;;;;;;5057598;28;20023;-84
2021/12/18 02:48:01;;;;;;;36.72;14.43;;;;;;;;;;5057766;28;20052;-84
2021/12/18 02:50:26;;;;;;;34.70;13.85;;;;;;;;;;5057429;28;20053;-84
2021/12/18 02:52:51;;;;;;;33.30;14.10;;;;;;;;;;5054427;28;20454;-85
2021/12/18 02:55:16;;;;;;;32.58;12.95;;;;;;;;;;5054311;28;20033;-85
2021/12/18 02:57:42;;;;;;;31.52;12.45;;;;;;;;;;5054289;28;20392;-84
2021/12/18 03:00:07;;;;;;;30.20;13.00;;;;;;;;;;5054319;28;20020;-84
2021/12/18 03:02:37;;;;;;;34.97;14.20;;;;;;;;;;5087573;28;20430;-84
2021/12/18 03:05:06;;;;;;;33.65;14.02;;;;;;;;;;5054254;28;20457;-84
2021/12/18 03:07:32;;;;;;;35.55;14.82;;;;;;;;;;5056764;28;20036;-84
2021/12/18 03:26:00;;;;;;;33.72;14.02;;;;;;;;;;5051413;28;20032;-84
2021/12/18 03:28:26;;;;;;;33.70;13.10;;;;;;;;;;5052894;28;20013;-84
2021/12/18 03:30:52;;;;;;;25.45;10.98;;;;;;;;;;5053811;28;20017;-84
2021/12/18 03:33:17;;;;;;;30.88;13.05;;;;;;;;;;5055041;28;20075;-84
2021/12/18 03:35:43;;;;;;;34.33;13.40;;;;;;;;;;5053026;28;20105;-84
2021/12/18 03:38:09;;;;;;;33.15;13.82;;;;;;;;;;5053872;28;20071;-84
2021/12/18 03:40:35;;;;;;;26.30;11.23;;;;;;;;;;5055420;28;20032;-84
2021/12/18 03:43:00;;;;;;;31.02;12.45;;;;;;;;;;5054235;28;20025;-85
2021/12/18 03:45:25;;;;;;;30.58;12.57;;;;;;;;;;5052776;28;20063;-84
2021/12/18 03:47:51;;;;;;;25.55;9.68;;;;;;;;;;5053325;28;20028;-85
2021/12/18 03:50:16;;;;;;;36.72;11.98;;;;;;;;;;5053339;28;20162;-85
2021/12/18 03:52:41;;;;;;;29.10;12.32;;;;;;;;;;5052804;28;20024;-85
2021/12/18 03:55:07;;;;;;;30.02;12.52;;;;;;;;;;5067134;28;20111;-84
2021/12/18 03:57:32;;;;;;;29.27;11.45;;;;;;;;;;5054314;28;20111;-84
2021/12/18 03:59:57;;;;;;;25.20;10.77;;;;;;;;;;5053325;28;20388;-82
2021/12/18 04:02:23;;;;;;;28.30;11.02;;;;;;;;;;5052200;28;20017;-82
2021/12/18 04:04:48;;;;;;;31.20;11.70;;;;;;;;;;5052843;28;20017;-82
2021/12/18 04:07:14;;;;;;;27.80;11.77;;;;;;;;;;5051460;28;20460;-82
2021/12/18 04:09:39;;;;;;;32.80;12.50;;;;;;;;;;5052320;28;20530;-81
2021/12/18 04:12:05;;;;;;;30.63;11.15;;;;;;;;;;5051416;28;20016;-82
2021/12/18 04:14:30;;;;;;;31.88;12.88;;;;;;;;;;5052594;28;20071;-81
2021/12/18 04:16:56;;;;;;;33.67;12.90;;;;;;;;;;5052782;28;20025;-81
2021/12/18 04:19:21;;;;;;;33.63;12.48;;;;;;;;;;5052376;28;20461;-81
2021/12/18 04:21:47;;;;;;;30.33;11.73;;;;;;;;;;5052743;28;20461;-82
2021/12/18 04:24:12;;;;;;;27.85;10.57;;;;;;;;;;5053325;28;20403;-81
2021/12/18 04:26:37;;;;;;;32.75;12.65;;;;;;;;;;5051905;28;20049;-82
2021/12/18 04:29:05;;;;;;;35.40;12.27;;;;;;;;;;5052513;28;20108;-82
2021/12/18 04:31:31;;;;;;;36.00;13.02;;;;;;;;;;5049676;28;20021;-82
2021/12/18 04:33:56;;;;;;;35.72;12.82;;;;;;;;;;5052134;28;20384;-82
2021/12/18 04:36:21;;;;;;;33.90;11.88;;;;;;;;;;5050981;28;20215;-82
2021/12/18 04:38:47;;;;;;;27.27;10.75;;;;;;;;;;5050792;28;20025;-82
2021/12/18 04:41:20;;;;;;;29.00;10.70;;;;;;;;;;5050636;28;20024;-82
2021/12/18 04:43:45;;;;;;;31.70;11.48;;;;;;;;;;5053554;28;20028;-82
2021/12/18 04:46:10;;;;;;;29.55;10.73;;;;;;;;;;5052322;28;20017;-82
2021/12/18 04:48:35;;;;;;;29.02;10.82;;;;;;;;;;5052344;28;20021;-82
2021/12/18 04:51:01;;;;;;;30.10;11.30;;;;;;;;;;5052272;28;20021;-82
2021/12/18 04:53:26;;;;;;;28.88;9.95;;;;;;;;;;5057683;28;20024;-81
2021/12/18 04:55:51;;;;;;;36.13;12.02;;;;;;;;;;5050308;28;20017;-82
2021/12/18 04:58:16;;;;;;;27.55;10.82;;;;;;;;;;5052068;28;20021;-82
2021/12/18 05:00:46;;;;;;;26.23;9.00;;;;;;;;;;5052244;28;20017;-82
2021/12/18 05:03:13;;;;;;;31.92;11.73;;;;;;;;;;5053215;28;20013;-82
2021/12/18 05:05:38;;;;;;;29.20;10.57;;;;;;;;;;5052060;28;20024;-81
2021/12/18 05:08:04;;;;;;;30.33;11.32;;;;;;;;;;5050920;28;20017;-81
2021/12/18 05:10:29;;;;;;;32.95;11.38;;;;;;;;;;5049637;28;20464;-81
2021/12/18 05:12:54;;;;;;;28.88;10.73;;;;;;;;;;5051699;28;20031;-82
2021/12/18 05:15:19;;;;;;;27.33;9.70;;;;;;;;;;5051271;28;20482;-82
2021/12/18 05:17:45;;;;;;;32.28;12.68;;;;;;;;;;5051681;28;20032;-82
2021/12/18 05:20:10;;;;;;;31.30;12.10;;;;;;;;;;5051679;28;20025;-82
2021/12/18 05:22:36;;;;;;;29.48;10.32;;;;;;;;;;5051543;28;20021;-82
2021/12/18 05:25:02;;;;;;;29.42;11.32;;;;;;;;;;5045225;28;20464;-82
2021/12/18 05:27:27;;;;;;;38.47;12.60;;;;;;;;;;5046157;28;20412;-82
2021/12/18 05:29:52;;;;;;;36.17;12.80;;;;;;;;;;5051258;28;20025;-81
2021/12/18 05:32:17;;;;;;;34.95;12.35;;;;;;;;;;5051267;28;20063;-81
2021/12/18 05:34:43;;;;;;;34.63;12.30;;;;;;;;;;5050698;28;20112;-82
2021/12/18 05:39:52;;;;;;;37.40;12.73;;;;;;;;;;5052420;28;20082;-82
2021/12/18 05:42:17;;;;;;;32.92;11.30;;;;;;;;;;5050946;28;20025;-81
2021/12/18 05:44:43;;;;;;;36.17;12.07;;;;;;;;;;5051152;28;20055;-81
2021/12/18 05:47:09;;;;;;;35.67;13.32;;;;;;;;;;5057421;28;20421;-82
2021/12/18 05:49:34;;;;;;;29.85;11.82;;;;;;;;;;5051309;28;20024;-82
2021/12/18 05:51:59;;;;;;;40.92;12.85;;;;;;;;;;5050888;28;20021;-82
2021/12/18 05:54:24;;;;;;;30.38;11.60;;;;;;;;;;5058141;28;20036;-82
2021/12/18 05:56:50;;;;;;;28.08;11.02;;;;;;;;;;5050333;28;20071;-82
2021/12/18 05:59:15;;;;;;;29.65;11.32;;;;;;;;;;5051096;28;20025;-82
2021/12/18 06:01:41;;;;;;;29.73;12.07;;;;;;;;;;5052059;28;20021;-82
2021/12/18 06:04:07;;;;;;;38.00;13.20;;;;;;;;;;5052537;28;20049;-82
2021/12/18 06:06:32;;;;;;;27.75;9.50;;;;;;;;;;5048743;28;20119;-82
2021/12/18 06:08:57;;;;;;;27.08;10.15;;;;;;;;;;5050532;28;20024;-82
2021/12/18 06:11:26;;;;;;;24.88;9.48;;;;;;;;;;5047144;28;20611;-82
2021/12/18 06:13:51;;;;;;;28.00;10.70;;;;;;;;;;5051212;28;20028;-82
2021/12/18 06:16:18;;;;;;;29.63;11.07;;;;;;;;;;5051033;28;20040;-81
2021/12/18 06:18:49;;;;;;;31.30;10.90;;;;;;;;;;5052276;28;20574;-82
2021/12/18 06:21:14;;;;;;;35.05;12.30;;;;;;;;;;5049891;28;20021;-82
2021/12/18 06:23:40;;;;;;;27.10;9.80;;;;;;;;;;5050431;28;20027;-82
2021/12/18 06:26:05;;;;;;;32.92;11.70;;;;;;;;;;5050280;28;20104;-81
2021/12/18 06:28:30;;;;;;;28.75;10.45;;;;;;;;;;5054208;28;20013;-81
2021/12/18 06:30:56;;;;;;;27.27;10.05;;;;;;;;;;5054304;28;20105;-82
2021/12/18 06:33:21;;;;;;;25.88;9.70;;;;;;;;;;5059558;28;20163;-81
2021/12/18 06:35:46;;;;;;;22.38;8.52;;;;;;;;;;5055015;28;20158;-82
2021/12/18 06:38:12;;;;;;;23.55;9.00;;;;;;;;;;5053598;28;20086;-82
2021/12/18 06:40:37;;;;;;;23.15;9.43;;;;;;;;;;5055197;28;20041;-81
2021/12/18 06:43:02;;;;;;;22.80;8.52;;;;;;;;;;5076745;28;20017;-82
2021/12/18 06:45:28;;;;;;;24.98;8.20;;;;;;;;;;5054634;28;20025;-82
2021/12/18 06:47:53;;;;;;;19.50;6.47;;;;;;;;;;5055669;28;20051;-82
2021/12/18 06:50:19;;;;;;;20.15;8.18;;;;;;;;;;5053122;28;20116;-82
2021/12/18 06:52:44;;;;;;;20.88;7.47;;;;;;;;;;5054983;28;20442;-82
2021/12/18 06:55:09;;;;;;;19.13;7.03;;;;;;;;;;5086515;28;20500;-82
2021/12/18 06:57:35;;;;;;;18.55;6.85;;;;;;;;;;5074655;28;20057;-82
2021/12/18 07:00:00;;;;;;;15.98;6.93;;;;;;;;;;5054403;28;20053;-82
2021/12/18 07:02:25;;;;;;;18.60;6.63;;;;;;;;;;5056691;28;20017;-82
2021/12/18 07:04:51;;;;;;;16.67;6.40;;;;;;;;;;5086307;28;20021;-82
2021/12/18 07:07:16;;;;;;;19.58;7.57;;;;;;;;;;5054519;28;20021;-82
2021/12/18 07:09:42;;;;;;;20.38;7.97;;;;;;;;;;5053953;28;20464;-82
2021/12/18 07:12:10;;;;;;;17.92;6.57;;;;;;;;;;5052372;28;20472;-82
2021/12/18 07:14:35;;;;;;;22.00;7.65;;;;;;;;;;5052525;28;20481;-82
2021/12/18 07:17:00;;;;;;;19.38;7.03;;;;;;;;;;5062441;28;20025;-82
2021/12/18 07:19:26;;;;;;;18.92;7.07;;;;;;;;;;5053713;28;20013;-82
2021/12/18 07:21:51;;;;;;;18.75;7.10;;;;;;;;;;5051715;28;20021;-82
2021/12/18 07:24:16;;;;;;;18.83;7.80;;;;;;;;;;5053274;28;20013;-82
2021/12/18 07:26:41;;;;;;;21.77;7.35;;;;;;;;;;5052437;28;20044;-82
2021/12/18 07:29:08;;;;;;;18.42;6.85;;;;;;;;;;5054029;28;20045;-82
2021/12/18 07:31:34;;;;;;;20.60;7.82;;;;;;;;;;5087181;28;20083;-83
2021/12/18 07:33:59;;;;;;;16.33;6.13;;;;;;;;;;5047592;28;20033;-82
2021/12/18 07:36:24;;;;;;;20.35;7.72;;;;;;;;;;5050965;28;20084;-82
2021/12/18 07:38:49;;;;;;;20.67;7.80;;;;;;;;;;5053944;28;20028;-82
2021/12/18 07:41:15;;;;;;;20.63;7.97;;;;;;;;;;5051495;28;20752;-82
2021/12/18 07:43:40;;;;;;;16.60;7.20;;;;;;;;;;5053519;28;20457;-82
2021/12/18 07:46:05;;;;;;;20.13;7.00;;;;;;;;;;5052768;28;20104;-82
2021/12/18 07:48:30;;;;;;;15.23;5.78;;;;;;;;;;5050990;28;20047;-82
2021/12/18 07:50:55;;;;;;;24.90;6.65;;;;;;;;;;5051804;28;20401;-82
2021/12/18 07:53:23;;;;;;;20.65;6.97;;;;;;;;;;5044136;28;20460;-82
2021/12/18 07:55:48;;;;;;;18.65;6.68;;;;;;;;;;5050195;28;20540;-82
2021/12/18 07:58:14;;;;;;;19.85;7.20;;;;;;;;;;5051356;28;20104;-81
2021/12/18 08:00:39;;;;;;;19.17;7.03;;;;;;;;;;5084566;28;20025;-82
2021/12/18 08:03:04;;;;;;;22.92;8.73;;;;;;;;;;5052188;28;20013;-81
2021/12/18 08:05:29;;;;;;;19.48;7.15;;;;;;;;;;5078399;28;20068;-83
2021/12/18 08:07:55;;;;;;;23.30;8.82;;;;;;;;;;5046646;28;20048;-83
2021/12/18 08:10:20;;;;;;;19.70;7.40;;;;;;;;;;5054333;28;20028;-83
2021/12/18 08:12:45;;;;;;;25.45;8.13;;;;;;;;;;5051486;28;20075;-83
2021/12/18 08:15:10;;;;;;;19.70;6.93;;;;;;;;;;5052395;28;20029;-83
2021/12/18 08:17:36;;;;;;;21.48;7.40;;;;;;;;;;5049967;28;20111;-84
2021/12/18 08:20:03;;;;;;;25.98;7.75;;;;;;;;;;5046658;28;20020;-83
2021/12/18 08:22:28;;;;;;;26.65;8.60;;;;;;;;;;5077293;28;20017;-84
2021/12/18 08:24:53;;;;;;;28.80;9.13;;;;;;;;;;5051869;28;20488;-84
2021/12/18 08:27:18;;;;;;;28.40;8.70;;;;;;;;;;5048538;28;20070;-83
2021/12/18 08:29:43;;;;;;;25.70;7.93;;;;;;;;;;5058478;28;20024;-84
2021/12/18 08:32:09;;;;;;;22.23;8.05;;;;;;;;;;5052283;28;20021;-83
2021/12/18 08:34:34;;;;;;;28.35;8.32;;;;;;;;;;5049070;28;20033;-83
2021/12/18 08:36:59;;;;;;;16.67;5.97;;;;;;;;;;5055733;28;20119;-83
2021/12/18 08:39:24;;;;;;;25.27;8.68;;;;;;;;;;5050564;28;20032;-83
2021/12/18 08:41:50;;;;;;;23.42;7.85;;;;;;;;;;5070824;28;20045;-83
2021/12/18 08:44:15;;;;;;;24.17;8.52;;;;;;;;;;5053587;28;20108;-83
2021/12/18 08:46:40;;;;;;;26.67;8.52;;;;;;;;;;5081380;28;20036;-82
2021/12/18 08:49:06;;;;;;;22.23;7.68;;;;;;;;;;5056582;28;20031;-82
2021/12/18 08:51:31;;;;;;;23.85;7.80;;;;;;;;;;5049706;28;20032;-83
2021/12/18 08:53:57;;;;;;;27.98;9.00;;;;;;;;;;5074774;28;20028;-83
2021/12/18 08:56:22;;;;;;;20.35;8.07;;;;;;;;;;5051044;28;20120;-82
2021/12/18 08:58:48;;;;;;;22.88;7.45;;;;;;;;;;5053623;28;20020;-82
2021/12/18 09:01:14;;;;;;;30.40;8.88;;;;;;;;;;5045435;28;20070;-83
2021/12/18 09:03:39;;;;;;;25.20;7.85;;;;;;;;;;5050737;28;20104;-83
2021/12/18 09:06:04;;;;;;;24.58;8.10;;;;;;;;;;5051003;28;20021;-83
2021/12/18 09:08:29;;;;;;;26.05;9.10;;;;;;;;;;5050951;28;20040;-83
2021/12/18 09:10:55;;;;;;;27.90;7.85;;;;;;;;;;5050143;28;20037;-83
2021/12/18 09:13:20;;;;;;;28.77;8.48;;;;;;;;;;5050687;28;20032;-83
2021/12/18 09:15:45;;;;;;;25.88;8.18;;;;;;;;;;5049506;28;20127;-83
2021/12/18 09:18:10;;;;;;;27.98;8.77;;;;;;;;;;5047644;28;20461;-83
2021/12/18 09:20:36;;;;;;;27.05;8.25;;;;;;;;;;5045993;28;20045;-83
2021/12/18 09:23:02;;;;;;;29.73;9.43;;;;;;;;;;5074344;28;20468;-82
2021/12/18 09:25:27;;;;;;;23.65;6.68;;;;;;;;;;5045887;28;20071;-83
2021/12/18 09:27:56;;;;;;;23.35;7.85;;;;;;;;;;5073818;28;20108;-83
2021/12/18 09:30:22;;;;;;;19.50;7.43;;;;;;;;;;5048235;28;20094;-83
2021/12/18 09:32:47;;;;;;;24.42;7.25;;;;;;;;;;5074288;28;20124;-83
2021/12/18 09:35:12;;;;;;;25.33;7.25;;;;;;;;;;5049155;28;20052;-83
2021/12/18 09:37:38;;;;;;;20.27;6.55;;;;;;;;;;5079640;28;20416;-83
2021/12/18 09:40:04;;;;;;;19.85;6.75;;;;;;;;;;5066469;28;20078;-83
2021/12/18 09:42:30;;;;;;;16.05;4.88;;;;;;;;;;5049990;28;20032;-82
2021/12/18 09:44:55;;;;;;;14.88;4.78;;;;;;;;;;5040208;28;20465;-83
2021/12/18 09:47:21;;;;;;;12.63;3.88;;;;;;;;;;5050191;28;20029;-83
2021/12/18 09:49:46;;;;;;;11.82;3.65;;;;;;;;;;5076235;28;20120;-82
2021/12/18 09:52:11;;;;;;;15.40;4.15;;;;;;;;;;5049331;28;20029;-83
2021/12/18 09:54:37;;;;;;;11.05;4.10;;;;;;;;;;5051064;28;20112;-82
2021/12/18 09:57:02;;;;;;;17.15;3.83;;;;;;;;;;5052160;28;20052;-82
2021/12/18 09:59:27;;;;;;;8.02;3.47;;;;;;;;;;5043045;28;20082;-83
2021/12/18 10:01:52;;;;;;;13.00;3.45;;;;;;;;;;5046054;28;20044;-83
2021/12/18 10:04:26;;;;;;;9.57;3.42;;;;;;;;;;5075216;28;20091;-83
2021/12/18 10:06:52;;;;;;;9.93;3.25;;;;;;;;;;5045712;28;20032;-83
2021/12/18 10:09:17;;;;;;;9.45;3.78;;;;;;;;;;5054147;28;20029;-83
2021/12/18 10:11:48;;;;;;;9.70;3.75;;;;;;;;;;5053581;28;20117;-83
2021/12/18 10:14:14;;;;;;;11.17;4.13;;;;;;;;;;5049589;28;20055;-82
2021/12/18 10:16:47;;;;;;;9.77;3.97;;;;;;;;;;5079531;28;20017;-83
2021/12/18 10:19:29;;;;;;;14.05;5.13;;;;;;;;;;5054613;28;20028;-83
2021/12/18 10:22:05;;;;;;;11.60;4.05;;;;;;;;;;5044882;28;20021;-83
2021/12/18 10:24:31;;;;;;;11.43;4.03;;;;;;;;;;5051750;28;20074;-82
2021/12/18 10:26:56;;;;;;;12.90;4.13;;;;;;;;;;5052482;28;20016;-83
2021/12/18 10:29:28;;;;;;;14.27;4.70;;;;;;;;;;5065829;28;20083;-82
2021/12/18 10:31:53;;;;;;;13.68;4.20;;;;;;;;;;5052815;28;20380;-83
2021/12/18 10:34:24;;;;;;;13.57;4.80;;;;;;;;;;5079993;28;20026;-83
2021/12/18 10:37:08;;;;;;;13.48;4.53;;;;;;;;;;5051285;28;20112;-83
2021/12/18 10:39:35;;;;;;;13.65;4.75;;;;;;;;;;5054296;28;20203;-83
2021/12/18 10:42:15;;;;;;;14.60;5.07;;;;;;;;;;5051699;28;20043;-83
2021/12/18 10:44:56;;;;;;;13.40;4.72;;;;;;;;;;5051110;28;20083;-83
2021/12/18 10:47:21;;;;;;;13.32;5.00;;;;;;;;;;5072664;28;20032;-82
2021/12/18 10:49:50;;;;;;;12.65;4.68;;;;;;;;;;5075854;28;20016;-83
2021/12/18 10:52:15;;;;;;;14.10;4.82;;;;;;;;;;5082055;28;20043;-83
2021/12/18 10:54:40;;;;;;;13.20;5.10;;;;;;;;;;5081770;28;20020;-83
2021/12/18 10:57:18;;;;;;;13.95;4.80;;;;;;;;;;5047249;28;20017;-83
2021/12/18 10:59:46;;;;;;;14.27;5.45;;;;;;;;;;5048301;28;20028;-83
2021/12/18 11:02:16;;;;;;;20.52;6.10;;;;;;;;;;5084707;28;21368;-82
2021/12/18 11:04:44;;;;;;;18.42;5.95;;;;;;;;;;5076648;28;20487;-83
2021/12/18 11:07:17;;;;;;;12.90;4.32;;;;;;;;;;5046981;28;20021;-83
2021/12/18 11:09:59;;;;;;;16.05;4.40;;;;;;;;;;5082208;28;20079;-82
2021/12/18 11:15:10;;;;;;;13.52;4.63;;;;;;;;;;5046976;28;20440;-83
2021/12/18 11:17:36;;;;;;;11.85;4.18;;;;;;;;;;5053735;28;20021;-81
2021/12/18 11:20:02;;;;;;;11.57;4.07;;;;;;;;;;5056293;28;20039;-82
2021/12/18 11:22:27;;;;;;;12.43;4.45;;;;;;;;;;5083067;28;20024;-81
2021/12/18 11:25:06;;;;;;;13.48;4.30;;;;;;;;;;5052991;28;20021;-83
2021/12/18 11:27:33;;;;;;;11.13;4.70;;;;;;;;;;5058123;28;20021;-83
2021/12/18 11:30:06;;;;;;;16.45;5.25;;;;;;;;;;5082391;28;20493;-83
2021/12/18 11:32:33;;;;;;;26.13;7.88;;;;;;;;;;5049207;28;20120;-83
2021/12/18 11:35:03;;;;;;;24.55;8.55;;;;;;;;;;5049214;28;20036;-83
2021/12/18 11:37:37;;;;;;;26.58;8.43;;;;;;;;;;5077808;28;20041;-82
2021/12/18 11:40:06;;;;;;;31.05;8.95;;;;;;;;;;5049566;28;20016;-83
2021/12/18 11:42:32;;;;;;;21.83;7.53;;;;;;;;;;5043329;28;20017;-83
2021/12/18 11:45:02;;;;;;;22.92;7.47;;;;;;;;;;5079261;28;20017;-86
2021/12/18 11:47:29;;;;;;;21.83;7.35;;;;;;;;;;5052717;28;20036;-82
2021/12/18 11:49:56;;;;;;;16.40;6.15;;;;;;;;;;5052575;28;20021;-82
2021/12/18 11:52:25;;;;;;;19.10;7.30;;;;;;;;;;5052343;28;20032;-83
2021/12/18 11:54:56;;;;;;;19.25;6.65;;;;;;;;;;5052153;28;20119;-82
2021/12/18 11:57:39;;;;;;;17.30;5.35;;;;;;;;;;5056340;28;20020;-82
2021/12/18 12:00:10;;;;;;;15.70;5.13;;;;;;;;;;5060493;28;20114;-82
2021/12/18 12:03:01;;;;;;;17.98;5.63;;;;;;;;;;5058718;28;20099;-82
2021/12/18 12:05:39;;;;;;;21.58;5.70;;;;;;;;;;5051005;28;20496;-82
2021/12/18 12:08:22;;;;;;;17.45;5.38;;;;;;;;;;5059522;28;20024;-82
2021/12/18 12:11:06;;;;;;;14.75;4.72;;;;;;;;;;5049716;28;20093;-82
2021/12/18 12:13:54;;;;;;;16.58;5.03;;;;;;;;;;5057561;28;20053;-81
2021/12/18 12:16:39;;;;;;;15.82;5.47;;;;;;;;;;5054908;28;20033;-82
2021/12/18 12:19:13;;;;;;;21.80;6.68;;;;;;;;;;5045799;28;20028;-81
2021/12/18 12:21:41;;;;;;;22.50;7.32;;;;;;;;;;5052217;28;20025;-81
2021/12/18 12:24:06;;;;;;;23.85;6.68;;;;;;;;;;5051630;28;20107;-82
2021/12/18 12:26:32;;;;;;;18.25;6.05;;;;;;;;;;5063538;28;20480;-82
2021/12/18 12:29:04;;;;;;;19.50;5.80;;;;;;;;;;5052600;28;20743;-82
2021/12/18 12:31:29;;;;;;;23.33;7.63;;;;;;;;;;5049913;28;20532;-82
2021/12/18 12:34:21;;;;;;;23.08;6.85;;;;;;;;;;5052756;28;20043;-82
2021/12/18 12:36:47;;;;;;;26.23;7.63;;;;;;;;;;5079302;28;20025;-82
2021/12/18 12:39:14;;;;;;;26.35;7.70;;;;;;;;;;5051500;28;20021;-81
2021/12/18 12:41:49;;;;;;;21.52;6.65;;;;;;;;;;5052248;28;20024;-82
2021/12/18 12:44:26;;;;;;;19.65;6.15;;;;;;;;;;5052825;28;20009;-81
2021/12/18 12:47:13;;;;;;;21.83;6.82;;;;;;;;;;5046989;28;20024;-82
2021/12/18 12:49:41;;;;;;;29.95;8.82;;;;;;;;;;5051300;28;20097;-82
2021/12/18 12:52:11;;;;;;;27.88;8.68;;;;;;;;;;5051200;28;20025;-81
2021/12/18 12:54:49;;;;;;;32.70;8.05;;;;;;;;;;5052667;28;20021;-81
2021/12/18 12:57:25;;;;;;;30.92;8.60;;;;;;;;;;5054686;28;20021;-82
2021/12/18 12:59:53;;;;;;;28.23;8.05;;;;;;;;;;5085065;28;20021;-82
2021/12/18 13:02:23;;;;;;;23.20;6.47;;;;;;;;;;5085798;28;20481;-82
2021/12/18 13:04:59;;;;;;;33.63;9.57;;;;;;;;;;5075699;28;20534;-82
2021/12/18 13:07:24;;;;;;;30.40;8.68;;;;;;;;;;5079309;28;20366;-82
2021/12/18 13:09:52;;;;;;;32.33;9.32;;;;;;;;;;5086447;28;20027;-82
2021/12/18 13:12:17;;;;;;;38.10;10.68;;;;;;;;;;5078207;28;20025;-82
2021/12/18 13:14:46;;;;;;;37.30;9.80;;;;;;;;;;5051947;28;20116;-81
2021/12/18 13:17:30;;;;;;;34.95;9.60;;;;;;;;;;5050525;28;20077;-83
2021/12/18 13:20:00;;;;;;;38.75;10.98;;;;;;;;;;5074308;28;20415;-81
2021/12/18 13:22:30;;;;;;;38.15;10.07;;;;;;;;;;5049854;28;20063;-82
2021/12/18 13:25:08;;;;;;;38.00;10.70;;;;;;;;;;5050169;28;20021;-82
2021/12/18 13:27:34;;;;;;;26.20;7.82;;;;;;;;;;5063523;28;20373;-82
2021/12/18 13:30:16;;;;;;;32.83;9.35;;;;;;;;;;5047931;28;20025;-82
2021/12/18 13:32:51;;;;;;;32.13;10.90;;;;;;;;;;5049834;28;20443;-82
2021/12/18 13:35:24;;;;;;;38.25;10.95;;;;;;;;;;5050572;28;20135;-82
2021/12/18 13:38:08;;;;;;;37.30;9.73;;;;;;;;;;5050356;28;20035;-82
2021/12/18 13:40:42;;;;;;;34.97;10.55;;;;;;;;;;5050733;28;20052;-82
2021/12/18 13:43:10;;;;;;;36.60;12.13;;;;;;;;;;5048180;28;20048;-82
2021/12/18 13:45:57;;;;;;;43.13;13.15;;;;;;;;;;5048852;28;20052;-83
2021/12/18 13:48:29;;;;;;;25.02;8.73;;;;;;;;;;5053438;28;20486;-83
2021/12/18 13:50:56;;;;;;;18.70;6.50;;;;;;;;;;5061982;28;20483;-82
2021/12/18 13:53:22;;;;;;;19.67;6.20;;;;;;;;;;5081627;28;20049;-82
2021/12/18 13:55:51;;;;;;;17.10;5.93;;;;;;;;;;5049405;28;20129;-81
2021/12/18 13:58:20;;;;;;;19.70;6.45;;;;;;;;;;5055765;28;20029;-83
2021/12/18 14:00:51;;;;;;;17.10;6.20;;;;;;;;;;5045178;28;20765;-81
2021/12/18 14:03:36;;;;;;;16.98;5.90;;;;;;;;;;5050498;28;20094;-82
2021/12/18 14:06:11;;;;;;;18.63;6.13;;;;;;;;;;5047712;28;20021;-82
2021/12/18 14:08:38;;;;;;;23.27;7.00;;;;;;;;;;5048113;28;20419;-81
2021/12/18 14:11:05;;;;;;;18.23;6.60;;;;;;;;;;5058663;28;20469;-82
2021/12/18 14:13:40;;;;;;;21.25;7.28;;;;;;;;;;5051021;28;20049;-82
2021/12/18 14:16:06;;;;;;;21.15;6.60;;;;;;;;;;5049252;28;20036;-82
2021/12/18 14:18:33;;;;;;;15.10;6.45;;;;;;;;;;5080267;28;20557;-83
2021/12/18 14:20:59;;;;;;;16.85;5.65;;;;;;;;;;5048489;28;20472;-82
2021/12/18 14:23:43;;;;;;;15.82;6.15;;;;;;;;;;5049171;28;20019;-83
2021/12/18 14:26:12;;;;;;;18.08;6.85;;;;;;;;;;5075293;28;20052;-83
2021/12/18 14:28:37;;;;;;;19.67;7.50;;;;;;;;;;5049938;28;20056;-82
2021/12/18 14:31:21;;;;;;;19.15;7.10;;;;;;;;;;5050538;28;20052;-81
2021/12/18 14:34:03;;;;;;;15.35;6.38;;;;;;;;;;5058988;28;20083;-83
2021/12/18 14:36:29;;;;;;;;;;;;;;;;;;5077039;28;20029;-81
2021/12/18 14:38:58;;;;;;;19.40;7.10;;;;;;;;;;5066056;28;19932;-81
2021/12/18 14:41:23;;;;;;;20.77;7.72;;;;;;;;;;5077959;28;20289;-81
2021/12/18 14:44:00;;;;;;;20.67;7.82;;;;;;;;;;5051093;28;20029;-82
2021/12/18 14:46:25;;;;;;;23.27;8.07;;;;;;;;;;5049627;28;20457;-82
2021/12/18 14:48:51;;;;;;;16.38;6.50;;;;;;;;;;5057301;28;20028;-81
2021/12/18 14:51:25;;;;;;;16.27;5.25;;;;;;;;;;5060963;28;20021;-82
2021/12/18 14:54:00;;;;;;;18.60;5.88;;;;;;;;;;5083352;28;20621;-82
2021/12/18 14:56:25;;;;;;;12.52;4.90;;;;;;;;;;5085468;28;20104;-81
2021/12/18 14:58:50;;;;;;;16.17;5.60;;;;;;;;;;5053640;28;20445;-81
2021/12/18 15:01:20;;;;;;;17.23;6.00;;;;;;;;;;5086192;28;20019;-81
2021/12/18 15:03:52;;;;;;;14.90;5.80;;;;;;;;;;5053141;28;20725;-81
2021/12/18 15:06:20;;;;;;;20.35;6.50;;;;;;;;;;5053271;28;20024;-81
2021/12/18 15:08:51;;;;;;;17.90;5.55;;;;;;;;;;5053086;28;20099;-81
2021/12/18 15:11:18;;;;;;;16.67;6.03;;;;;;;;;;5046213;28;20029;-81
2021/12/18 15:13:50;;;;;;;18.50;7.00;;;;;;;;;;5076187;28;20075;-81
2021/12/18 15:16:26;;;;;;;17.38;7.07;;;;;;;;;;5054456;28;20043;-81
2021/12/18 15:18:52;;;;;;;19.38;7.43;;;;;;;;;;5053279;28;20441;-81